FARRENBERG (FAR1) Information & Weather

WARNING: the data listed below is for informational purposes only and should be confirmed from official sources. Data presented here on this page may be out of date, incomplete or wrong.

Name: FARRENBERG
Identifier: FAR1

Coord: 48.3855N 9.0767E
Var: 1°E

Country: Germany
Municipality: UNKNOWN,
Time Zone: (GMT+01:00) Europe/Berlin

Station Elevation: 2605 ft
Pressure Altitude: 2460 ft
Density Altitude: 3504 ft
Freezing Level: 11191 ft

Civil Twilight
Morning: 04:09 UTC  (05:09 local)
Evening: 18:36 UTC  (19:36 local)

METAR EDDS 020850Z 10004KT 030V190 9999 FEW006 SCT013 17/13 Q1018 NOSIG= [toggle past 4 hours]
(Station: EDDS; distance: 19.2 nm)

TAF EDDS 021100Z 0212/0312 VRB03KT 9999 SCT040 BECMG 0309/0311 28006KT=
(Station: EDDS; distance: 19.2 nm)

Upper Winds

Source   Valid 375 1000 2000 2500 3000 5000 6000 8000 10000 12000 14000 16000 18000 21000 24000 26000 30000 34000 39000 44000 52000 60000
GFS 0212/0215 1005+21 1005+19 1005+18 1006+16 1006+14 1004+09 2700+05 2506+03 2413+00 2321-02 2325-06 2326-11 2327-16 2329-22 2334-29 2241-36 2147-44 2253-51 2250-51 2238-50 2129-54 2015-55

SIGMET/AIRMET

None within 25nm.

PIREP

None within 25nm.

NOTAM

None within 25nm.

Runway Data

Frequencies

Nearby Airports

Nearby Navaids